createdAt,value
2018-09-12T00:01:04.551Z,7.33
2018-09-12T00:03:32.799Z,7.17
2018-09-12T00:06:00.961Z,7.00
2018-09-12T00:08:29.163Z,7.07
2018-09-12T00:10:57.346Z,7.93
2018-09-12T00:13:25.537Z,7.67
2018-09-12T00:15:53.767Z,7.23
2018-09-12T00:18:21.948Z,7.20
2018-09-12T00:20:50.151Z,6.63
2018-09-12T00:23:18.370Z,8.43
2018-09-12T00:25:46.596Z,7.63
2018-09-12T00:28:14.768Z,8.77
2018-09-12T00:30:42.951Z,7.93
2018-09-12T00:33:11.127Z,8.70
2018-09-12T00:35:39.287Z,7.10
2018-09-12T00:38:07.551Z,7.73
2018-09-12T00:40:35.712Z,9.70
2018-09-12T00:43:03.887Z,7.53
2018-09-12T00:45:32.071Z,7.23
2018-09-12T00:48:00.268Z,8.03
2018-09-12T00:50:28.439Z,7.83
2018-09-12T00:52:56.642Z,7.20
2018-09-12T00:55:24.821Z,7.47
2018-09-12T00:57:53.053Z,7.03
2018-09-12T01:00:21.207Z,7.77
2018-09-12T01:02:50.412Z,11.20
2018-09-12T01:05:18.573Z,8.90
2018-09-12T01:07:46.762Z,8.20
2018-09-12T01:10:14.936Z,7.80
2018-09-12T01:12:43.217Z,7.73
2018-09-12T01:15:11.390Z,7.17
2018-09-12T01:17:39.586Z,7.83
2018-09-12T01:20:07.768Z,8.00
2018-09-12T01:22:35.954Z,8.00
2018-09-12T01:25:04.161Z,9.47
2018-09-12T01:27:32.359Z,8.60
2018-09-12T01:30:00.550Z,7.83
2018-09-12T01:32:28.812Z,7.27
2018-09-12T01:34:57.080Z,8.97
2018-09-12T01:37:25.265Z,7.63
2018-09-12T01:39:53.431Z,8.43
2018-09-12T01:42:21.654Z,8.10
2018-09-12T01:44:49.839Z,8.10
2018-09-12T01:47:18.003Z,8.33
2018-09-12T01:49:46.327Z,10.40
2018-09-12T01:52:14.528Z,8.10
2018-09-12T01:54:42.701Z,9.47
2018-09-12T01:57:10.903Z,8.07
2018-09-12T01:59:39.043Z,9.33
2018-09-12T02:02:07.228Z,9.30
2018-09-12T02:04:35.456Z,8.70
2018-09-12T02:07:03.624Z,14.30
2018-09-12T02:09:31.892Z,9.57
2018-09-12T02:12:00.147Z,9.33
2018-09-12T02:14:28.306Z,8.33
2018-09-12T02:16:56.485Z,10.60
2018-09-12T02:19:24.711Z,8.57
2018-09-12T02:21:52.970Z,8.77
2018-09-12T02:24:21.157Z,8.23
2018-09-12T02:26:49.327Z,8.83
2018-09-12T02:29:17.478Z,7.40
2018-09-12T02:31:45.661Z,8.23
2018-09-12T02:34:13.832Z,9.10
2018-09-12T02:36:42.024Z,8.10
2018-09-12T02:39:10.200Z,9.63
2018-09-12T02:41:38.391Z,9.07
2018-09-12T02:44:06.589Z,7.77
2018-09-12T02:46:34.772Z,8.90
2018-09-12T02:49:02.953Z,9.63
2018-09-12T02:51:31.107Z,9.53
2018-09-12T02:53:59.293Z,8.73
2018-09-12T02:56:27.473Z,9.40
2018-09-12T02:58:55.644Z,9.07
2018-09-12T03:01:23.833Z,7.77
2018-09-12T03:03:52.019Z,8.50
2018-09-12T03:06:20.191Z,9.90
2018-09-12T03:08:48.395Z,8.63
2018-09-12T03:11:16.579Z,8.77
2018-09-12T03:13:44.749Z,9.23
2018-09-12T03:16:13.053Z,8.40
2018-09-12T03:18:41.208Z,8.20
2018-09-12T03:21:09.442Z,8.40
2018-09-12T03:23:37.820Z,8.57
2018-09-12T03:26:05.994Z,8.93
2018-09-12T03:28:34.167Z,10.00
2018-09-12T03:31:02.407Z,8.37
2018-09-12T03:33:30.579Z,9.37
2018-09-12T03:35:58.763Z,9.60
2018-09-12T03:38:26.930Z,9.83
2018-09-12T03:40:55.108Z,9.10
2018-09-12T03:43:23.280Z,9.67
2018-09-12T03:45:51.441Z,11.90
2018-09-12T03:48:19.632Z,8.97
2018-09-12T03:50:47.875Z,9.43
2018-09-12T03:53:16.056Z,8.93
2018-09-12T03:55:44.428Z,9.33
2018-09-12T03:58:12.588Z,9.20
2018-09-12T04:00:40.780Z,9.47
2018-09-12T04:03:09.176Z,9.07
2018-09-12T04:05:37.330Z,8.67
2018-09-12T04:08:05.912Z,8.20
2018-09-12T04:10:34.175Z,8.20
2018-09-12T04:13:02.400Z,8.97
2018-09-12T04:15:30.633Z,8.47
2018-09-12T04:17:58.956Z,8.37
2018-09-12T04:20:27.135Z,9.83
2018-09-12T04:22:55.422Z,9.43
2018-09-12T04:25:23.615Z,9.63
2018-09-12T04:27:51.827Z,8.90
2018-09-12T04:30:20.008Z,8.70
2018-09-12T04:32:48.218Z,8.87
2018-09-12T04:35:16.387Z,9.07
2018-09-12T04:37:44.575Z,8.80
2018-09-12T04:40:12.753Z,9.03
2018-09-12T04:42:40.942Z,9.03
2018-09-12T04:45:09.135Z,9.77
2018-09-12T04:47:37.343Z,9.80
2018-09-12T04:50:05.926Z,9.80
2018-09-12T04:52:34.179Z,8.63
2018-09-12T04:55:02.580Z,9.17
2018-09-12T04:57:30.791Z,9.00
2018-09-12T04:59:58.987Z,9.47
2018-09-12T05:02:27.199Z,9.70
2018-09-12T05:04:55.383Z,9.23
2018-09-12T05:07:23.605Z,9.80
2018-09-12T05:09:51.772Z,9.60
2018-09-12T05:12:19.963Z,9.37
2018-09-12T05:14:48.212Z,10.73
2018-09-12T05:17:18.460Z,10.17
2018-09-12T05:19:46.736Z,10.37
2018-09-12T05:22:14.971Z,10.40
2018-09-12T05:24:43.214Z,12.47
2018-09-12T05:27:11.391Z,11.90
2018-09-12T05:29:39.969Z,11.87
2018-09-12T05:32:08.201Z,10.53
2018-09-12T05:34:36.366Z,10.60
2018-09-12T05:37:04.807Z,11.23
2018-09-12T05:39:33.100Z,11.47
2018-09-12T05:42:01.303Z,10.60
2018-09-12T05:44:29.483Z,10.37
2018-09-12T05:46:57.819Z,11.33
2018-09-12T05:49:26.130Z,12.47
2018-09-12T05:51:54.457Z,10.23
2018-09-12T05:54:22.636Z,9.00
2018-09-12T05:56:50.850Z,10.70
2018-09-12T05:59:19.062Z,10.57
2018-09-12T06:01:47.251Z,10.57
2018-09-12T06:04:15.479Z,11.50
2018-09-12T06:06:43.693Z,10.80
2018-09-12T06:09:11.851Z,10.73
2018-09-12T06:11:40.086Z,13.70
2018-09-12T06:14:08.386Z,12.30
2018-09-12T06:16:36.779Z,11.40
2018-09-12T06:19:05.811Z,18.23
2018-09-12T06:21:34.696Z,15.03
2018-09-12T06:24:02.914Z,21.00
2018-09-12T06:26:31.151Z,16.37
2018-09-12T06:28:59.354Z,12.03
2018-09-12T06:31:27.616Z,16.73
2018-09-12T06:33:55.857Z,10.83
2018-09-12T06:36:24.076Z,11.80
2018-09-12T06:38:52.299Z,15.33
2018-09-12T06:41:20.855Z,12.20
2018-09-12T06:43:50.112Z,11.83
2018-09-12T06:46:21.406Z,12.83
2018-09-12T06:48:50.147Z,13.07
2018-09-12T06:51:18.457Z,10.70
2018-09-12T06:53:46.761Z,11.67
2018-09-12T06:56:15.020Z,12.27
2018-09-12T06:58:43.332Z,17.83
2018-09-12T07:01:11.620Z,11.67
2018-09-12T07:03:39.893Z,10.93
2018-09-12T07:06:08.504Z,11.37
2018-09-12T07:08:37.146Z,13.07
2018-09-12T07:11:05.492Z,12.80
2018-09-12T07:13:33.841Z,12.03
2018-09-12T07:16:02.523Z,11.17
2018-09-12T07:18:30.904Z,11.37
2018-09-12T07:20:59.596Z,13.03
2018-09-12T07:23:28.125Z,10.43
2018-09-12T07:25:56.457Z,13.07
2018-09-12T07:28:24.791Z,12.30
2018-09-12T07:30:55.113Z,13.40
2018-09-12T07:33:23.625Z,10.33
2018-09-12T07:35:52.252Z,9.80
2018-09-12T07:38:21.156Z,13.53
2018-09-12T07:40:49.567Z,9.80
2018-09-12T07:43:17.996Z,9.70
2018-09-12T07:45:46.440Z,10.37
2018-09-12T07:48:15.211Z,10.97
2018-09-12T07:50:47.792Z,8.63
2018-09-12T07:53:16.794Z,9.80
2018-09-12T07:55:45.194Z,12.93
2018-09-12T07:58:14.108Z,9.40
2018-09-12T08:00:42.754Z,7.90
2018-09-12T08:03:11.940Z,8.83
2018-09-12T08:05:40.715Z,10.40
2018-09-12T08:08:09.052Z,9.73
2018-09-12T08:10:37.649Z,12.37
2018-09-12T08:20:04.564Z,8.53
2018-09-12T08:22:32.922Z,9.37
2018-09-12T08:25:02.225Z,9.10
2018-09-12T08:27:31.592Z,8.13
2018-09-12T08:30:00.145Z,7.93
2018-09-12T08:32:28.451Z,8.57
2018-09-12T08:34:56.724Z,9.70
2018-09-12T08:37:25.268Z,7.37
2018-09-12T08:39:54.704Z,6.75
2018-09-12T08:42:23.184Z,8.95
2018-09-12T08:44:51.329Z,7.95
2018-09-12T08:47:19.582Z,6.92
2018-09-12T08:49:47.792Z,5.85
2018-09-12T08:52:16.938Z,7.22
2018-09-12T08:54:45.101Z,9.45
2018-09-12T08:57:13.301Z,6.70
2018-09-12T08:59:41.483Z,8.43
2018-09-12T09:02:09.732Z,7.12
2018-09-12T09:04:37.943Z,6.60
2018-09-12T09:07:17.716Z,8.25
2018-09-12T09:10:03.839Z,6.80
2018-09-12T09:12:32.031Z,7.62
2018-09-12T09:15:00.218Z,6.60
2018-09-12T09:17:28.446Z,7.85
2018-09-12T09:19:56.625Z,8.20
2018-09-12T09:22:24.836Z,6.75
2018-09-12T09:24:53.000Z,6.50
2018-09-12T09:27:21.260Z,8.85
2018-09-12T09:29:49.439Z,9.75
2018-09-12T09:32:17.639Z,7.87
2018-09-12T09:34:46.302Z,11.25
2018-09-12T09:37:14.500Z,7.70
2018-09-12T09:39:42.692Z,9.00
2018-09-12T09:42:10.873Z,7.60
2018-09-12T09:44:39.071Z,9.18
2018-09-12T09:47:07.242Z,7.45
2018-09-12T09:49:35.411Z,5.70
2018-09-12T09:52:03.606Z,7.95
2018-09-12T09:54:31.836Z,9.45
2018-09-12T09:56:59.994Z,7.22
2018-09-12T09:59:28.248Z,6.72
2018-09-12T10:02:01.843Z,6.28
2018-09-12T10:04:35.475Z,9.13
2018-09-12T10:07:12.750Z,5.53
2018-09-12T10:09:40.947Z,8.85
2018-09-12T10:12:09.224Z,7.62
2018-09-12T10:14:37.395Z,6.67
2018-09-12T10:17:05.576Z,7.70
2018-09-12T10:19:33.839Z,8.58
2018-09-12T10:22:02.044Z,8.55
2018-09-12T10:24:30.399Z,8.73
2018-09-12T10:26:58.576Z,7.90
2018-09-12T10:29:26.751Z,6.42
2018-09-12T10:31:54.951Z,5.00
2018-09-12T10:34:23.120Z,5.15
2018-09-12T10:36:51.341Z,5.10
2018-09-12T10:39:19.529Z,5.10
2018-09-12T10:41:47.731Z,5.55
2018-09-12T10:44:15.932Z,3.90
2018-09-12T10:46:44.108Z,4.92
2018-09-12T10:49:12.283Z,6.10
2018-09-12T10:51:40.481Z,4.85
2018-09-12T10:54:08.706Z,4.92
2018-09-12T10:56:36.883Z,4.60
2018-09-12T10:59:05.097Z,5.17
2018-09-12T11:01:33.325Z,5.05
2018-09-12T11:04:01.508Z,4.75
2018-09-12T11:06:29.700Z,4.75
2018-09-12T11:08:57.938Z,6.05
2018-09-12T11:11:26.138Z,5.03
2018-09-12T11:13:54.331Z,5.20
2018-09-12T11:16:22.536Z,5.70
2018-09-12T11:18:50.761Z,4.55
2018-09-12T11:21:19.175Z,4.72
2018-09-12T11:23:47.414Z,5.35
2018-09-12T11:26:15.535Z,4.80
2018-09-12T11:28:43.731Z,5.90
2018-09-12T11:31:11.900Z,5.40
2018-09-12T11:33:40.074Z,4.58
2018-09-12T11:36:08.333Z,5.85
2018-09-12T11:38:36.630Z,5.20
2018-09-12T11:41:04.819Z,5.28
2018-09-12T11:43:33.060Z,6.17
2018-09-12T11:46:01.675Z,5.70
2018-09-12T11:48:30.140Z,4.45
2018-09-12T11:50:58.346Z,4.60
2018-09-12T11:53:26.560Z,6.67
2018-09-12T11:55:54.763Z,4.85
2018-09-12T11:58:22.934Z,6.03
2018-09-12T12:00:51.128Z,4.85
2018-09-12T12:03:19.390Z,4.33
2018-09-12T12:05:47.575Z,4.08
2018-09-12T12:08:15.774Z,3.40
2018-09-12T12:10:44.011Z,3.50
2018-09-12T12:13:12.169Z,3.90
2018-09-12T12:15:40.369Z,5.08
2018-09-12T12:18:08.534Z,3.77
2018-09-12T12:20:36.859Z,3.67
2018-09-12T12:23:05.163Z,3.58
2018-09-12T12:25:33.338Z,5.80
2018-09-12T12:28:01.569Z,4.50
2018-09-12T12:30:29.820Z,5.03
2018-09-12T12:32:57.987Z,3.60
2018-09-12T12:35:26.200Z,4.45
2018-09-12T12:37:54.761Z,4.75
2018-09-12T12:40:23.281Z,4.25
2018-09-12T12:42:51.470Z,5.15
2018-09-12T12:45:19.800Z,4.80
2018-09-12T12:47:48.292Z,3.45
2018-09-12T12:50:16.696Z,4.30
2018-09-12T12:52:45.067Z,3.15
2018-09-12T12:55:13.372Z,5.83
2018-09-12T12:57:41.721Z,3.85
2018-09-12T13:00:09.893Z,5.35
2018-09-12T13:02:38.080Z,4.22
2018-09-12T13:05:06.402Z,3.65
2018-09-12T13:07:34.583Z,3.77
2018-09-12T13:10:02.920Z,4.87
2018-09-12T13:12:31.107Z,3.50
2018-09-12T13:14:59.275Z,4.20
2018-09-12T13:17:27.590Z,3.62
2018-09-12T13:19:55.747Z,4.22
2018-09-12T13:22:23.997Z,3.50
2018-09-12T13:24:52.247Z,4.03
2018-09-12T13:27:20.447Z,3.70
2018-09-12T13:29:48.656Z,5.87
2018-09-12T13:32:16.822Z,4.08
2018-09-12T13:34:45.360Z,3.87
2018-09-12T13:37:13.555Z,3.92
2018-09-12T13:39:41.806Z,4.08
2018-09-12T13:42:10.047Z,6.17
2018-09-12T13:44:38.265Z,5.15
2018-09-12T13:47:06.528Z,3.70
2018-09-12T13:49:34.758Z,4.47
2018-09-12T13:52:03.036Z,4.50
2018-09-12T13:54:31.265Z,3.85
2018-09-12T13:56:59.451Z,4.17
2018-09-12T13:59:27.911Z,4.17
2018-09-12T14:02:00.914Z,3.33
2018-09-12T14:04:31.567Z,4.22
2018-09-12T14:07:00.387Z,4.37
2018-09-12T14:09:29.977Z,5.00
2018-09-12T14:11:58.356Z,4.65
2018-09-12T14:14:26.545Z,4.67
2018-09-12T14:16:54.808Z,5.83
2018-09-12T14:19:23.094Z,4.70
2018-09-12T14:21:51.241Z,3.98
2018-09-12T14:24:19.418Z,4.15
2018-09-12T14:26:47.843Z,3.83
2018-09-12T14:29:16.460Z,4.17
2018-09-12T14:31:44.638Z,4.33
2018-09-12T14:34:12.876Z,4.25
2018-09-12T14:36:41.071Z,4.50
2018-09-12T14:39:10.062Z,3.67
2018-09-12T14:41:38.644Z,5.12
2018-09-12T14:44:06.993Z,4.08
2018-09-12T14:46:35.180Z,3.75
2018-09-12T14:49:03.393Z,3.85
2018-09-12T14:51:32.983Z,5.20
2018-09-12T14:54:01.158Z,5.33
2018-09-12T14:56:29.999Z,4.72
2018-09-12T14:58:58.228Z,5.67
2018-09-12T15:01:26.599Z,5.62
2018-09-12T15:03:54.809Z,4.25
2018-09-12T15:06:23.037Z,4.53
2018-09-12T15:08:51.278Z,6.37
2018-09-12T15:11:19.543Z,5.05
2018-09-12T15:13:47.718Z,3.70
2018-09-12T15:16:15.885Z,4.35
2018-09-12T15:18:44.055Z,3.98
2018-09-12T15:21:12.171Z,5.10
2018-09-12T15:23:40.338Z,7.08
2018-09-12T15:26:08.523Z,5.75
2018-09-12T15:28:36.746Z,4.45
2018-09-12T15:31:04.899Z,4.83
2018-09-12T15:33:33.033Z,5.17
2018-09-12T15:36:01.242Z,4.72
2018-09-12T15:38:29.414Z,4.97
2018-09-12T15:40:57.545Z,4.62
2018-09-12T15:43:25.724Z,6.20
2018-09-12T15:45:53.855Z,4.72
2018-09-12T15:48:22.085Z,5.60
2018-09-12T15:50:50.227Z,4.95
2018-09-12T15:53:18.367Z,4.62
2018-09-12T15:55:46.516Z,4.37
2018-09-12T15:58:14.739Z,6.10
2018-09-12T16:00:42.994Z,4.30
2018-09-12T16:03:11.206Z,4.22
2018-09-12T16:05:39.445Z,4.80
2018-09-12T16:08:07.810Z,5.65
2018-09-12T16:10:35.999Z,3.87
2018-09-12T16:13:04.200Z,5.10
2018-09-12T16:15:32.438Z,5.20
2018-09-12T16:18:00.859Z,5.33
2018-09-12T16:20:29.162Z,5.80
2018-09-12T16:22:57.348Z,5.60
2018-09-12T16:25:25.501Z,5.55
2018-09-12T16:27:53.635Z,5.00
2018-09-12T16:30:21.774Z,5.05
2018-09-12T16:32:49.935Z,4.83
2018-09-12T16:35:18.094Z,5.53
2018-09-12T16:37:46.218Z,5.65
2018-09-12T16:40:14.482Z,4.62
2018-09-12T16:42:42.546Z,5.00
2018-09-12T16:45:10.685Z,4.62
2018-09-12T16:47:38.810Z,5.22
2018-09-12T16:50:07.106Z,4.95
2018-09-12T16:52:35.281Z,4.87
2018-09-12T16:55:03.517Z,5.65
2018-09-12T16:57:31.800Z,5.55
2018-09-12T16:59:59.977Z,5.03
2018-09-12T17:02:28.410Z,6.15
2018-09-12T17:04:56.827Z,4.78
2018-09-12T17:07:25.057Z,5.12
2018-09-12T17:09:53.258Z,5.00
2018-09-12T17:12:21.469Z,4.50
2018-09-12T17:14:49.653Z,4.90
2018-09-12T17:17:17.853Z,5.78
2018-09-12T17:19:46.182Z,4.92
2018-09-12T17:22:14.551Z,5.50
2018-09-12T17:24:42.729Z,5.35
2018-09-12T17:27:11.185Z,4.92
2018-09-12T17:29:39.354Z,5.28
2018-09-12T17:32:07.677Z,5.40
2018-09-12T17:34:35.793Z,7.58
2018-09-12T17:37:03.945Z,4.62
2018-09-12T17:39:32.146Z,6.62
2018-09-12T17:42:00.369Z,4.90
2018-09-12T17:44:28.494Z,4.72
2018-09-12T17:47:00.513Z,5.25
2018-09-12T17:49:28.630Z,5.17
2018-09-12T17:51:57.778Z,4.80
2018-09-12T17:54:26.089Z,6.15
2018-09-12T17:56:54.278Z,5.17
2018-09-12T17:59:22.407Z,5.03
2018-09-12T18:01:50.915Z,4.40
2018-09-12T18:04:19.073Z,6.03
2018-09-12T18:06:47.418Z,7.00
2018-09-12T18:09:15.646Z,5.53
2018-09-12T18:11:43.847Z,6.67
2018-09-12T18:14:12.067Z,8.40
2018-09-12T18:16:40.294Z,5.37
2018-09-12T18:19:09.513Z,6.60
2018-09-12T18:21:39.728Z,7.37
2018-09-12T18:24:07.981Z,6.57
2018-09-12T18:26:36.078Z,6.57
2018-09-12T18:29:04.218Z,8.13
2018-09-12T18:31:34.531Z,6.10
2018-09-12T18:34:02.805Z,8.07
2018-09-12T18:36:31.008Z,6.97
2018-09-12T18:38:59.145Z,5.77
2018-09-12T18:41:27.327Z,6.60
2018-09-12T18:43:55.571Z,6.13
2018-09-12T18:46:23.677Z,5.50
2018-09-12T18:51:46.106Z,6.40
2018-09-12T18:54:27.780Z,7.57
2018-09-12T18:56:55.954Z,8.77
2018-09-12T18:59:24.213Z,6.60
2018-09-12T19:01:54.030Z,8.47
2018-09-12T19:04:23.763Z,10.13
2018-09-12T19:06:52.616Z,6.27
2018-09-12T19:09:21.167Z,6.13
2018-09-12T19:11:50.855Z,9.87
2018-09-12T19:14:20.327Z,6.37
2018-09-12T19:16:48.867Z,6.17
2018-09-12T19:19:18.428Z,7.83
2018-09-12T19:21:46.800Z,6.03
2018-09-12T19:24:15.158Z,6.87
2018-09-12T19:26:44.011Z,7.13
2018-09-12T19:29:12.733Z,6.43
2018-09-12T19:31:40.869Z,6.50
2018-09-12T19:34:09.123Z,8.07
2018-09-12T19:36:37.653Z,7.87
2018-09-12T19:39:07.390Z,7.20
2018-09-12T19:41:35.497Z,7.67
2018-09-12T19:44:03.827Z,6.10
2018-09-12T19:46:32.001Z,7.00
2018-09-12T19:49:00.193Z,9.50
2018-09-12T19:51:28.358Z,7.20
2018-09-12T19:53:57.393Z,7.60
2018-09-12T19:56:25.637Z,10.33
2018-09-12T19:58:53.806Z,12.67
2018-09-12T20:01:22.031Z,10.37
2018-09-12T20:03:50.243Z,8.00
2018-09-12T20:06:21.702Z,9.30
2018-09-12T20:08:49.940Z,8.90
2018-09-12T20:11:18.116Z,9.83
2018-09-12T20:13:46.547Z,8.07
2018-09-12T20:16:14.978Z,8.57
2018-09-12T20:18:43.190Z,9.57
2018-09-12T20:21:11.382Z,8.23
2018-09-12T20:23:39.578Z,9.83
2018-09-12T20:26:07.741Z,9.97
2018-09-12T20:28:39.639Z,8.20
2018-09-12T20:31:08.681Z,8.53
2018-09-12T20:33:37.407Z,8.47
2018-09-12T20:36:07.019Z,8.67
2018-09-12T20:38:35.342Z,9.10
2018-09-12T20:41:03.575Z,7.17
2018-09-12T20:43:31.782Z,7.97
2018-09-12T20:46:02.097Z,9.37
2018-09-12T20:48:30.355Z,11.90
2018-09-12T20:50:58.545Z,13.27
2018-09-12T20:53:26.771Z,10.77
2018-09-12T20:55:54.960Z,10.03
2018-09-12T20:58:23.355Z,10.53
2018-09-12T21:00:51.518Z,12.13
2018-09-12T21:03:19.782Z,12.97
2018-09-12T21:05:48.025Z,12.30
2018-09-12T21:08:16.243Z,10.43
2018-09-12T21:10:44.501Z,11.70
2018-09-12T21:13:12.774Z,11.30
2018-09-12T21:15:40.997Z,12.47
2018-09-12T21:18:09.145Z,10.70
2018-09-12T21:20:37.381Z,11.10
2018-09-12T21:23:05.594Z,11.17
2018-09-12T21:25:33.921Z,10.10
2018-09-12T21:28:02.218Z,10.23
2018-09-12T21:30:30.398Z,12.10
2018-09-12T21:32:58.816Z,11.87
2018-09-12T21:35:26.969Z,9.67
2018-09-12T21:37:55.180Z,10.40
2018-09-12T21:40:23.372Z,9.93
2018-09-12T21:42:51.570Z,10.53
2018-09-12T21:45:19.681Z,10.27
2018-09-12T21:47:47.871Z,12.87
2018-09-12T21:50:16.126Z,11.87
2018-09-12T21:52:44.306Z,10.20
2018-09-12T21:55:12.444Z,8.93
2018-09-12T21:57:40.629Z,9.83
2018-09-12T22:00:09.013Z,10.27
2018-09-12T22:02:37.249Z,10.33
2018-09-12T22:05:05.655Z,12.93
2018-09-12T22:07:33.837Z,10.30
2018-09-12T22:10:02.153Z,10.97
2018-09-12T22:12:30.368Z,11.73
2018-09-12T22:14:58.568Z,11.37
2018-09-12T22:17:26.729Z,11.07
2018-09-12T22:19:54.930Z,9.87
2018-09-12T22:22:23.117Z,10.50
2018-09-12T22:24:51.265Z,10.97
2018-09-12T22:27:19.692Z,9.07
2018-09-12T22:29:47.968Z,9.63
2018-09-12T22:32:16.154Z,11.30
2018-09-12T22:34:44.333Z,8.80
2018-09-12T22:37:12.519Z,9.23
2018-09-12T22:39:40.770Z,8.40
2018-09-12T22:42:08.901Z,7.93
2018-09-12T22:44:37.031Z,7.90
2018-09-12T22:47:05.202Z,8.47
2018-09-12T22:49:33.372Z,7.57
2018-09-12T22:52:01.481Z,9.20
2018-09-12T22:54:29.662Z,8.07
2018-09-12T22:56:57.866Z,8.30
2018-09-12T22:59:26.038Z,7.93
2018-09-12T23:01:54.192Z,7.93
2018-09-12T23:04:22.333Z,6.43
2018-09-12T23:06:50.705Z,11.03
2018-09-12T23:09:19.034Z,9.97
2018-09-12T23:11:47.149Z,7.40
2018-09-12T23:14:15.289Z,9.07
2018-09-12T23:16:43.629Z,8.70
2018-09-12T23:19:11.753Z,7.27
2018-09-12T23:21:40.113Z,9.53
2018-09-12T23:24:08.238Z,8.00
2018-09-12T23:26:36.342Z,7.70
2018-09-12T23:29:04.846Z,8.03
2018-09-12T23:31:32.967Z,10.10
2018-09-12T23:34:01.085Z,8.07
2018-09-12T23:36:29.209Z,8.23
2018-09-12T23:38:57.332Z,8.90
2018-09-12T23:41:25.472Z,7.83
2018-09-12T23:43:53.633Z,8.63
2018-09-12T23:46:21.762Z,11.13
2018-09-12T23:48:49.982Z,8.13
2018-09-12T23:51:18.512Z,8.30
2018-09-12T23:53:46.586Z,8.23
2018-09-12T23:56:14.701Z,9.40
2018-09-12T23:58:42.813Z,9.37
